sensor_id;sensor_type;location;lat;lon;timestamp;P1;durP1;ratioP1;P2;durP2;ratioP2
13566;SDS011;6855;48.112;11.298;2023-04-25T00:00:44;2.60;;;1.47;;
13566;SDS011;6855;48.112;11.298;2023-04-25T00:03:11;2.20;;;1.60;;
13566;SDS011;6855;48.112;11.298;2023-04-25T00:05:39;2.13;;;1.10;;
13566;SDS011;6855;48.112;11.298;2023-04-25T00:08:06;4.20;;;1.67;;
13566;SDS011;6855;48.112;11.298;2023-04-25T00:10:33;1.60;;;1.47;;
13566;SDS011;6855;48.112;11.298;2023-04-25T00:13:02;4.20;;;1.70;;
13566;SDS011;6855;48.112;11.298;2023-04-25T00:15:29;2.13;;;1.50;;
13566;SDS011;6855;48.112;11.298;2023-04-25T00:17:56;2.53;;;2.00;;
13566;SDS011;6855;48.112;11.298;2023-04-25T00:20:24;8.00;;;2.03;;
13566;SDS011;6855;48.112;11.298;2023-04-25T00:22:51;2.90;;;1.77;;
13566;SDS011;6855;48.112;11.298;2023-04-25T00:25:18;3.90;;;1.43;;
13566;SDS011;6855;48.112;11.298;2023-04-25T00:27:46;2.63;;;1.33;;
13566;SDS011;6855;48.112;11.298;2023-04-25T00:30:14;2.60;;;1.53;;
13566;SDS011;6855;48.112;11.298;2023-04-25T00:32:41;7.80;;;2.27;;
13566;SDS011;6855;48.112;11.298;2023-04-25T00:35:09;3.10;;;1.40;;
13566;SDS011;6855;48.112;11.298;2023-04-25T00:37:36;5.27;;;1.47;;
13566;SDS011;6855;48.112;11.298;2023-04-25T00:40:04;5.53;;;1.77;;
13566;SDS011;6855;48.112;11.298;2023-04-25T00:42:32;2.70;;;1.40;;
13566;SDS011;6855;48.112;11.298;2023-04-25T00:44:59;6.43;;;1.73;;
13566;SDS011;6855;48.112;11.298;2023-04-25T00:47:28;4.20;;;1.67;;
13566;SDS011;6855;48.112;11.298;2023-04-25T00:49:55;5.97;;;2.20;;
13566;SDS011;6855;48.112;11.298;2023-04-25T00:52:23;9.40;;;1.60;;
13566;SDS011;6855;48.112;11.298;2023-04-25T00:54:50;6.33;;;1.40;;
13566;SDS011;6855;48.112;11.298;2023-04-25T00:57:17;8.30;;;1.60;;
13566;SDS011;6855;48.112;11.298;2023-04-25T00:59:45;3.60;;;1.70;;
13566;SDS011;6855;48.112;11.298;2023-04-25T01:02:12;2.13;;;1.60;;
13566;SDS011;6855;48.112;11.298;2023-04-25T01:04:41;11.00;;;1.80;;
13566;SDS011;6855;48.112;11.298;2023-04-25T01:07:08;2.13;;;1.30;;
13566;SDS011;6855;48.112;11.298;2023-04-25T01:09:36;4.10;;;1.57;;
13566;SDS011;6855;48.112;11.298;2023-04-25T01:12:03;3.83;;;1.70;;
13566;SDS011;6855;48.112;11.298;2023-04-25T01:14:31;2.70;;;1.37;;
13566;SDS011;6855;48.112;11.298;2023-04-25T01:16:58;3.47;;;1.60;;
13566;SDS011;6855;48.112;11.298;2023-04-25T01:19:25;2.73;;;1.70;;
13566;SDS011;6855;48.112;11.298;2023-04-25T01:21:54;4.13;;;1.53;;
13566;SDS011;6855;48.112;11.298;2023-04-25T01:24:21;1.60;;;1.50;;
13566;SDS011;6855;48.112;11.298;2023-04-25T01:26:48;2.70;;;1.70;;
13566;SDS011;6855;48.112;11.298;2023-04-25T01:29:16;1.73;;;1.63;;
13566;SDS011;6855;48.112;11.298;2023-04-25T01:31:44;2.40;;;1.97;;
13566;SDS011;6855;48.112;11.298;2023-04-25T01:34:11;4.90;;;1.53;;
13566;SDS011;6855;48.112;11.298;2023-04-25T01:36:39;3.00;;;1.60;;
13566;SDS011;6855;48.112;11.298;2023-04-25T01:39:07;3.77;;;1.90;;
13566;SDS011;6855;48.112;11.298;2023-04-25T01:41:35;2.17;;;1.50;;
13566;SDS011;6855;48.112;11.298;2023-04-25T01:44:02;2.90;;;2.00;;
13566;SDS011;6855;48.112;11.298;2023-04-25T01:46:29;2.00;;;1.63;;
13566;SDS011;6855;48.112;11.298;2023-04-25T01:48:57;1.60;;;1.50;;
13566;SDS011;6855;48.112;11.298;2023-04-25T01:51:24;1.80;;;1.60;;
13566;SDS011;6855;48.112;11.298;2023-04-25T01:53:51;1.60;;;1.50;;
13566;SDS011;6855;48.112;11.298;2023-04-25T01:56:20;2.03;;;1.63;;
13566;SDS011;6855;48.112;11.298;2023-04-25T01:58:48;2.50;;;1.73;;
13566;SDS011;6855;48.112;11.298;2023-04-25T02:01:15;3.50;;;1.67;;
13566;SDS011;6855;48.112;11.298;2023-04-25T02:03:42;5.90;;;2.07;;
13566;SDS011;6855;48.112;11.298;2023-04-25T02:06:09;2.10;;;1.80;;
13566;SDS011;6855;48.112;11.298;2023-04-25T02:08:37;1.80;;;1.60;;
13566;SDS011;6855;48.112;11.298;2023-04-25T02:11:04;4.20;;;1.80;;
13566;SDS011;6855;48.112;11.298;2023-04-25T02:13:32;1.97;;;1.80;;
13566;SDS011;6855;48.112;11.298;2023-04-25T02:15:59;3.67;;;1.63;;
13566;SDS011;6855;48.112;11.298;2023-04-25T02:18:27;2.13;;;1.70;;
13566;SDS011;6855;48.112;11.298;2023-04-25T02:20:54;3.00;;;1.73;;
13566;SDS011;6855;48.112;11.298;2023-04-25T02:23:21;2.97;;;2.17;;
13566;SDS011;6855;48.112;11.298;2023-04-25T02:25:48;1.73;;;1.60;;
13566;SDS011;6855;48.112;11.298;2023-04-25T02:28:16;2.17;;;1.90;;
13566;SDS011;6855;48.112;11.298;2023-04-25T02:30:44;1.70;;;1.50;;
13566;SDS011;6855;48.112;11.298;2023-04-25T02:33:11;4.03;;;1.90;;
13566;SDS011;6855;48.112;11.298;2023-04-25T02:35:41;2.13;;;1.50;;
13566;SDS011;6855;48.112;11.298;2023-04-25T02:38:09;2.17;;;1.80;;
13566;SDS011;6855;48.112;11.298;2023-04-25T02:40:36;11.23;;;2.20;;
13566;SDS011;6855;48.112;11.298;2023-04-25T02:43:06;4.33;;;2.00;;
13566;SDS011;6855;48.112;11.298;2023-04-25T02:45:33;2.40;;;1.60;;
13566;SDS011;6855;48.112;11.298;2023-04-25T02:48:02;4.70;;;1.77;;
13566;SDS011;6855;48.112;11.298;2023-04-25T02:50:29;9.53;;;1.90;;
13566;SDS011;6855;48.112;11.298;2023-04-25T02:52:56;5.37;;;2.17;;
13566;SDS011;6855;48.112;11.298;2023-04-25T02:55:24;2.60;;;1.60;;
13566;SDS011;6855;48.112;11.298;2023-04-25T02:57:51;2.00;;;1.80;;
13566;SDS011;6855;48.112;11.298;2023-04-25T03:00:20;5.63;;;2.00;;
13566;SDS011;6855;48.112;11.298;2023-04-25T03:02:47;2.97;;;1.77;;
13566;SDS011;6855;48.112;11.298;2023-04-25T03:05:16;2.27;;;1.60;;
13566;SDS011;6855;48.112;11.298;2023-04-25T03:07:43;6.33;;;1.60;;
13566;SDS011;6855;48.112;11.298;2023-04-25T03:10:11;2.20;;;1.30;;
13566;SDS011;6855;48.112;11.298;2023-04-25T03:12:38;2.20;;;1.20;;
13566;SDS011;6855;48.112;11.298;2023-04-25T03:15:06;4.20;;;1.30;;
13566;SDS011;6855;48.112;11.298;2023-04-25T03:17:33;5.73;;;1.40;;
13566;SDS011;6855;48.112;11.298;2023-04-25T03:20:00;5.50;;;1.80;;
13566;SDS011;6855;48.112;11.298;2023-04-25T03:22:30;3.20;;;1.53;;
13566;SDS011;6855;48.112;11.298;2023-04-25T03:24:57;1.70;;;1.33;;
13566;SDS011;6855;48.112;11.298;2023-04-25T03:27:24;5.40;;;1.60;;
13566;SDS011;6855;48.112;11.298;2023-04-25T03:29:52;2.70;;;1.50;;
13566;SDS011;6855;48.112;11.298;2023-04-25T03:32:19;2.30;;;1.33;;
13566;SDS011;6855;48.112;11.298;2023-04-25T03:34:46;3.00;;;1.20;;
13566;SDS011;6855;48.112;11.298;2023-04-25T03:37:13;1.30;;;1.20;;
13566;SDS011;6855;48.112;11.298;2023-04-25T03:39:42;2.90;;;1.40;;
13566;SDS011;6855;48.112;11.298;2023-04-25T03:42:09;3.53;;;1.57;;
13566;SDS011;6855;48.112;11.298;2023-04-25T03:44:36;3.70;;;1.57;;
13566;SDS011;6855;48.112;11.298;2023-04-25T03:47:03;1.27;;;1.10;;
13566;SDS011;6855;48.112;11.298;2023-04-25T03:49:31;1.97;;;1.10;;
13566;SDS011;6855;48.112;11.298;2023-04-25T03:51:58;1.23;;;1.13;;
13566;SDS011;6855;48.112;11.298;2023-04-25T03:54:25;2.80;;;1.33;;
13566;SDS011;6855;48.112;11.298;2023-04-25T03:56:54;1.33;;;1.20;;
13566;SDS011;6855;48.112;11.298;2023-04-25T03:59:21;2.20;;;1.27;;
13566;SDS011;6855;48.112;11.298;2023-04-25T04:01:48;4.73;;;1.50;;
13566;SDS011;6855;48.112;11.298;2023-04-25T04:04:15;1.53;;;1.37;;
13566;SDS011;6855;48.112;11.298;2023-04-25T04:06:42;2.80;;;1.53;;
13566;SDS011;6855;48.112;11.298;2023-04-25T04:09:10;1.57;;;1.40;;
13566;SDS011;6855;48.112;11.298;2023-04-25T04:11:38;3.90;;;1.60;;
13566;SDS011;6855;48.112;11.298;2023-04-25T04:14:06;3.33;;;1.60;;
13566;SDS011;6855;48.112;11.298;2023-04-25T04:16:35;6.17;;;2.00;;
13566;SDS011;6855;48.112;11.298;2023-04-25T04:19:02;2.93;;;1.63;;
13566;SDS011;6855;48.112;11.298;2023-04-25T04:21:29;3.43;;;1.63;;
13566;SDS011;6855;48.112;11.298;2023-04-25T04:23:57;2.80;;;1.80;;
13566;SDS011;6855;48.112;11.298;2023-04-25T04:26:25;2.33;;;1.73;;
13566;SDS011;6855;48.112;11.298;2023-04-25T04:28:52;3.73;;;1.40;;
13566;SDS011;6855;48.112;11.298;2023-04-25T04:31:21;3.27;;;1.87;;
13566;SDS011;6855;48.112;11.298;2023-04-25T04:33:48;2.00;;;1.10;;
13566;SDS011;6855;48.112;11.298;2023-04-25T04:36:16;6.63;;;1.80;;
13566;SDS011;6855;48.112;11.298;2023-04-25T04:38:45;2.40;;;1.73;;
13566;SDS011;6855;48.112;11.298;2023-04-25T04:41:12;2.33;;;1.60;;
13566;SDS011;6855;48.112;11.298;2023-04-25T04:43:39;3.70;;;1.60;;
13566;SDS011;6855;48.112;11.298;2023-04-25T04:46:06;3.87;;;1.80;;
13566;SDS011;6855;48.112;11.298;2023-04-25T04:48:36;4.40;;;1.63;;
13566;SDS011;6855;48.112;11.298;2023-04-25T04:51:05;2.87;;;1.60;;
13566;SDS011;6855;48.112;11.298;2023-04-25T04:53:32;2.70;;;1.30;;
13566;SDS011;6855;48.112;11.298;2023-04-25T04:55:59;2.10;;;1.47;;
13566;SDS011;6855;48.112;11.298;2023-04-25T04:58:26;2.20;;;2.00;;
13566;SDS011;6855;48.112;11.298;2023-04-25T05:00:55;2.60;;;2.23;;
13566;SDS011;6855;48.112;11.298;2023-04-25T05:03:22;3.25;;;2.20;;
13566;SDS011;6855;48.112;11.298;2023-04-25T05:05:51;2.80;;;1.70;;
13566;SDS011;6855;48.112;11.298;2023-04-25T05:08:18;2.47;;;1.87;;
13566;SDS011;6855;48.112;11.298;2023-04-25T05:10:45;5.73;;;2.23;;
13566;SDS011;6855;48.112;11.298;2023-04-25T05:13:12;3.33;;;1.80;;
13566;SDS011;6855;48.112;11.298;2023-04-25T05:15:39;6.83;;;2.03;;
13566;SDS011;6855;48.112;11.298;2023-04-25T05:18:07;4.30;;;2.10;;
13566;SDS011;6855;48.112;11.298;2023-04-25T05:20:34;8.73;;;2.60;;
13566;SDS011;6855;48.112;11.298;2023-04-25T05:23:02;5.57;;;2.80;;
13566;SDS011;6855;48.112;11.298;2023-04-25T05:25:30;9.27;;;2.60;;
13566;SDS011;6855;48.112;11.298;2023-04-25T05:27:57;6.07;;;2.13;;
13566;SDS011;6855;48.112;11.298;2023-04-25T05:30:24;3.80;;;1.90;;
13566;SDS011;6855;48.112;11.298;2023-04-25T05:32:51;6.40;;;1.93;;
13566;SDS011;6855;48.112;11.298;2023-04-25T05:35:18;7.80;;;1.80;;
13566;SDS011;6855;48.112;11.298;2023-04-25T05:37:45;5.23;;;1.40;;
13566;SDS011;6855;48.112;11.298;2023-04-25T05:40:14;7.40;;;1.93;;
13566;SDS011;6855;48.112;11.298;2023-04-25T05:42:41;3.83;;;2.00;;
13566;SDS011;6855;48.112;11.298;2023-04-25T05:45:08;5.73;;;2.40;;
13566;SDS011;6855;48.112;11.298;2023-04-25T05:47:36;8.33;;;3.30;;
13566;SDS011;6855;48.112;11.298;2023-04-25T05:50:04;5.90;;;3.50;;
13566;SDS011;6855;48.112;11.298;2023-04-25T05:52:35;3.57;;;2.47;;
13566;SDS011;6855;48.112;11.298;2023-04-25T05:55:02;3.83;;;2.50;;
13566;SDS011;6855;48.112;11.298;2023-04-25T05:57:31;5.93;;;2.23;;
13566;SDS011;6855;48.112;11.298;2023-04-25T05:59:58;4.50;;;2.40;;
13566;SDS011;6855;48.112;11.298;2023-04-25T06:02:25;10.53;;;2.83;;
13566;SDS011;6855;48.112;11.298;2023-04-25T06:04:52;5.63;;;2.40;;
13566;SDS011;6855;48.112;11.298;2023-04-25T06:07:20;3.90;;;2.03;;
13566;SDS011;6855;48.112;11.298;2023-04-25T06:09:47;4.60;;;2.67;;
13566;SDS011;6855;48.112;11.298;2023-04-25T06:12:14;3.43;;;1.60;;
13566;SDS011;6855;48.112;11.298;2023-04-25T06:14:42;4.27;;;1.63;;
13566;SDS011;6855;48.112;11.298;2023-04-25T06:17:10;2.90;;;1.93;;
13566;SDS011;6855;48.112;11.298;2023-04-25T06:19:37;3.43;;;1.80;;
13566;SDS011;6855;48.112;11.298;2023-04-25T06:22:04;2.43;;;1.60;;
13566;SDS011;6855;48.112;11.298;2023-04-25T06:24:32;3.57;;;1.87;;
13566;SDS011;6855;48.112;11.298;2023-04-25T06:26:59;2.47;;;1.83;;
13566;SDS011;6855;48.112;11.298;2023-04-25T06:29:26;2.80;;;1.67;;
13566;SDS011;6855;48.112;11.298;2023-04-25T06:31:55;2.13;;;1.80;;
13566;SDS011;6855;48.112;11.298;2023-04-25T06:34:23;1.80;;;1.60;;
13566;SDS011;6855;48.112;11.298;2023-04-25T06:36:50;5.23;;;2.00;;
13566;SDS011;6855;48.112;11.298;2023-04-25T06:39:17;4.10;;;2.10;;
13566;SDS011;6855;48.112;11.298;2023-04-25T06:41:45;4.77;;;1.80;;
13566;SDS011;6855;48.112;11.298;2023-04-25T06:44:12;1.53;;;1.43;;
13566;SDS011;6855;48.112;11.298;2023-04-25T06:46:39;1.77;;;1.67;;
13566;SDS011;6855;48.112;11.298;2023-04-25T06:49:08;4.10;;;2.30;;
13566;SDS011;6855;48.112;11.298;2023-04-25T06:51:35;3.33;;;2.10;;
13566;SDS011;6855;48.112;11.298;2023-04-25T06:54:03;2.43;;;1.70;;
13566;SDS011;6855;48.112;11.298;2023-04-25T06:56:30;3.50;;;1.73;;
13566;SDS011;6855;48.112;11.298;2023-04-25T06:58:57;5.33;;;1.70;;
13566;SDS011;6855;48.112;11.298;2023-04-25T07:01:25;3.87;;;2.20;;
13566;SDS011;6855;48.112;11.298;2023-04-25T07:03:52;2.33;;;2.07;;
13566;SDS011;6855;48.112;11.298;2023-04-25T07:06:21;4.20;;;2.67;;
13566;SDS011;6855;48.112;11.298;2023-04-25T07:08:48;5.73;;;2.43;;
13566;SDS011;6855;48.112;11.298;2023-04-25T07:11:15;3.27;;;1.60;;
13566;SDS011;6855;48.112;11.298;2023-04-25T07:13:42;4.30;;;2.23;;
13566;SDS011;6855;48.112;11.298;2023-04-25T07:16:09;3.73;;;2.00;;
13566;SDS011;6855;48.112;11.298;2023-04-25T07:18:36;3.27;;;1.93;;
13566;SDS011;6855;48.112;11.298;2023-04-25T07:21:04;2.93;;;1.97;;
13566;SDS011;6855;48.112;11.298;2023-04-25T07:23:32;1.70;;;1.53;;
13566;SDS011;6855;48.112;11.298;2023-04-25T07:25:59;4.03;;;2.30;;
13566;SDS011;6855;48.112;11.298;2023-04-25T07:28:26;3.87;;;2.50;;
13566;SDS011;6855;48.112;11.298;2023-04-25T07:30:54;3.47;;;1.87;;
13566;SDS011;6855;48.112;11.298;2023-04-25T07:33:21;3.93;;;2.27;;
13566;SDS011;6855;48.112;11.298;2023-04-25T07:35:48;3.37;;;1.77;;
13566;SDS011;6855;48.112;11.298;2023-04-25T07:38:15;4.50;;;2.70;;
13566;SDS011;6855;48.112;11.298;2023-04-25T07:40:44;4.73;;;2.10;;
13566;SDS011;6855;48.112;11.298;2023-04-25T07:43:11;3.97;;;1.80;;
13566;SDS011;6855;48.112;11.298;2023-04-25T07:45:41;4.60;;;2.60;;
13566;SDS011;6855;48.112;11.298;2023-04-25T07:48:08;4.37;;;2.17;;
13566;SDS011;6855;48.112;11.298;2023-04-25T07:50:36;3.87;;;2.10;;
13566;SDS011;6855;48.112;11.298;2023-04-25T07:53:03;2.77;;;1.60;;
13566;SDS011;6855;48.112;11.298;2023-04-25T07:55:30;7.67;;;2.23;;
13566;SDS011;6855;48.112;11.298;2023-04-25T07:57:59;3.63;;;2.00;;
13566;SDS011;6855;48.112;11.298;2023-04-25T08:00:26;2.70;;;2.23;;
13566;SDS011;6855;48.112;11.298;2023-04-25T08:02:53;3.60;;;1.90;;
13566;SDS011;6855;48.112;11.298;2023-04-25T08:05:21;4.33;;;2.10;;
13566;SDS011;6855;48.112;11.298;2023-04-25T08:07:48;2.30;;;1.97;;
13566;SDS011;6855;48.112;11.298;2023-04-25T08:10:15;3.00;;;1.70;;
13566;SDS011;6855;48.112;11.298;2023-04-25T08:12:42;2.70;;;1.50;;
13566;SDS011;6855;48.112;11.298;2023-04-25T08:15:11;2.47;;;1.63;;
13566;SDS011;6855;48.112;11.298;2023-04-25T08:17:39;3.23;;;1.70;;
13566;SDS011;6855;48.112;11.298;2023-04-25T08:20:06;2.63;;;1.90;;
13566;SDS011;6855;48.112;11.298;2023-04-25T08:22:35;3.23;;;1.70;;
13566;SDS011;6855;48.112;11.298;2023-04-25T08:25:02;1.87;;;1.63;;
13566;SDS011;6855;48.112;11.298;2023-04-25T08:27:29;3.70;;;1.50;;
13566;SDS011;6855;48.112;11.298;2023-04-25T08:29:56;3.23;;;1.43;;
13566;SDS011;6855;48.112;11.298;2023-04-25T08:32:25;3.20;;;1.50;;
13566;SDS011;6855;48.112;11.298;2023-04-25T08:34:52;6.67;;;1.70;;
13566;SDS011;6855;48.112;11.298;2023-04-25T08:37:20;1.67;;;1.30;;
13566;SDS011;6855;48.112;11.298;2023-04-25T08:39:47;4.30;;;1.63;;
13566;SDS011;6855;48.112;11.298;2023-04-25T08:42:17;3.70;;;1.47;;
13566;SDS011;6855;48.112;11.298;2023-04-25T08:44:45;1.83;;;1.67;;
13566;SDS011;6855;48.112;11.298;2023-04-25T08:47:12;5.27;;;1.80;;
13566;SDS011;6855;48.112;11.298;2023-04-25T08:49:41;2.50;;;1.60;;
13566;SDS011;6855;48.112;11.298;2023-04-25T08:52:09;3.20;;;2.00;;
13566;SDS011;6855;48.112;11.298;2023-04-25T08:54:39;3.00;;;1.73;;
13566;SDS011;6855;48.112;11.298;2023-04-25T08:57:09;2.37;;;1.77;;
13566;SDS011;6855;48.112;11.298;2023-04-25T08:59:36;2.13;;;1.77;;
13566;SDS011;6855;48.112;11.298;2023-04-25T09:02:04;2.77;;;1.90;;
13566;SDS011;6855;48.112;11.298;2023-04-25T09:04:31;3.50;;;1.80;;
13566;SDS011;6855;48.112;11.298;2023-04-25T09:07:00;3.50;;;1.93;;
13566;SDS011;6855;48.112;11.298;2023-04-25T09:09:27;3.27;;;1.63;;
13566;SDS011;6855;48.112;11.298;2023-04-25T09:11:54;4.70;;;1.63;;
13566;SDS011;6855;48.112;11.298;2023-04-25T09:14:22;2.37;;;1.77;;
13566;SDS011;6855;48.112;11.298;2023-04-25T09:17:00;2.33;;;2.00;;
13566;SDS011;6855;48.112;11.298;2023-04-25T09:19:29;1.73;;;1.50;;
13566;SDS011;6855;48.112;11.298;2023-04-25T09:21:56;2.60;;;1.50;;
13566;SDS011;6855;48.112;11.298;2023-04-25T09:24:32;4.53;;;1.70;;
13566;SDS011;6855;48.112;11.298;2023-04-25T09:26:59;1.97;;;1.37;;
13566;SDS011;6855;48.112;11.298;2023-04-25T09:29:29;6.30;;;1.73;;
13566;SDS011;6855;48.112;11.298;2023-04-25T09:32:10;2.93;;;1.73;;
13566;SDS011;6855;48.112;11.298;2023-04-25T09:34:38;2.33;;;1.27;;
13566;SDS011;6855;48.112;11.298;2023-04-25T09:37:06;3.63;;;1.33;;
13566;SDS011;6855;48.112;11.298;2023-04-25T09:39:35;2.70;;;1.13;;
13566;SDS011;6855;48.112;11.298;2023-04-25T09:42:03;1.33;;;1.13;;
13566;SDS011;6855;48.112;11.298;2023-04-25T09:44:30;4.57;;;1.43;;
13566;SDS011;6855;48.112;11.298;2023-04-25T09:46:57;5.60;;;1.40;;
13566;SDS011;6855;48.112;11.298;2023-04-25T09:49:25;1.77;;;1.10;;
13566;SDS011;6855;48.112;11.298;2023-04-25T09:51:54;3.27;;;1.50;;
13566;SDS011;6855;48.112;11.298;2023-04-25T09:54:22;1.30;;;1.20;;
13566;SDS011;6855;48.112;11.298;2023-04-25T09:56:51;4.23;;;1.17;;
13566;SDS011;6855;48.112;11.298;2023-04-25T09:59:19;7.60;;;1.37;;
13566;SDS011;6855;48.112;11.298;2023-04-25T10:01:48;3.03;;;1.37;;
13566;SDS011;6855;48.112;11.298;2023-04-25T10:04:16;2.07;;;1.10;;
13566;SDS011;6855;48.112;11.298;2023-04-25T10:06:46;1.83;;;1.20;;
13566;SDS011;6855;48.112;11.298;2023-04-25T10:09:15;9.80;;;1.57;;
13566;SDS011;6855;48.112;11.298;2023-04-25T10:11:43;3.10;;;1.07;;
13566;SDS011;6855;48.112;11.298;2023-04-25T10:14:13;2.83;;;1.33;;
13566;SDS011;6855;48.112;11.298;2023-04-25T10:16:41;4.43;;;1.50;;
13566;SDS011;6855;48.112;11.298;2023-04-25T10:19:09;2.13;;;1.10;;
13566;SDS011;6855;48.112;11.298;2023-04-25T10:21:36;1.97;;;1.37;;
13566;SDS011;6855;48.112;11.298;2023-04-25T10:24:07;2.20;;;1.30;;
13566;SDS011;6855;48.112;11.298;2023-04-25T10:26:35;1.13;;;1.00;;
13566;SDS011;6855;48.112;11.298;2023-04-25T10:29:03;1.40;;;1.00;;
13566;SDS011;6855;48.112;11.298;2023-04-25T10:31:31;1.53;;;1.00;;
13566;SDS011;6855;48.112;11.298;2023-04-25T10:33:59;1.63;;;1.37;;
13566;SDS011;6855;48.112;11.298;2023-04-25T10:36:27;3.03;;;1.00;;
13566;SDS011;6855;48.112;11.298;2023-04-25T10:38:58;1.60;;;1.17;;
13566;SDS011;6855;48.112;11.298;2023-04-25T10:41:31;2.07;;;1.20;;
13566;SDS011;6855;48.112;11.298;2023-04-25T10:44:11;1.50;;;1.20;;
13566;SDS011;6855;48.112;11.298;2023-04-25T10:46:40;1.20;;;1.07;;
13566;SDS011;6855;48.112;11.298;2023-04-25T10:49:07;1.63;;;1.10;;
13566;SDS011;6855;48.112;11.298;2023-04-25T10:51:36;3.20;;;1.10;;
13566;SDS011;6855;48.112;11.298;2023-04-25T10:54:03;1.77;;;1.10;;
13566;SDS011;6855;48.112;11.298;2023-04-25T10:56:31;2.47;;;1.10;;
13566;SDS011;6855;48.112;11.298;2023-04-25T10:59:06;1.60;;;1.30;;
13566;SDS011;6855;48.112;11.298;2023-04-25T11:01:35;2.50;;;1.20;;
13566;SDS011;6855;48.112;11.298;2023-04-25T11:04:04;2.00;;;1.20;;
13566;SDS011;6855;48.112;11.298;2023-04-25T11:06:34;2.67;;;1.53;;
13566;SDS011;6855;48.112;11.298;2023-04-25T11:09:08;1.80;;;1.20;;
13566;SDS011;6855;48.112;11.298;2023-04-25T11:11:38;1.20;;;1.10;;
13566;SDS011;6855;48.112;11.298;2023-04-25T11:14:05;2.00;;;1.60;;
13566;SDS011;6855;48.112;11.298;2023-04-25T11:16:32;3.23;;;1.50;;
13566;SDS011;6855;48.112;11.298;2023-04-25T11:19:01;1.67;;;1.30;;
13566;SDS011;6855;48.112;11.298;2023-04-25T11:21:30;3.87;;;1.20;;
13566;SDS011;6855;48.112;11.298;2023-04-25T11:23:58;1.37;;;1.27;;
13566;SDS011;6855;48.112;11.298;2023-04-25T11:26:25;2.00;;;1.20;;
13566;SDS011;6855;48.112;11.298;2023-04-25T11:28:56;1.20;;;1.10;;
13566;SDS011;6855;48.112;11.298;2023-04-25T11:31:25;0.80;;;0.80;;
13566;SDS011;6855;48.112;11.298;2023-04-25T11:33:53;1.60;;;0.90;;
13566;SDS011;6855;48.112;11.298;2023-04-25T11:36:22;1.33;;;1.10;;
13566;SDS011;6855;48.112;11.298;2023-04-25T11:38:51;0.83;;;0.83;;
13566;SDS011;6855;48.112;11.298;2023-04-25T11:41:18;1.27;;;0.83;;
13566;SDS011;6855;48.112;11.298;2023-04-25T11:43:47;0.97;;;0.97;;
13566;SDS011;6855;48.112;11.298;2023-04-25T11:46:15;0.70;;;0.70;;
13566;SDS011;6855;48.112;11.298;2023-04-25T11:48:42;1.83;;;0.90;;
13566;SDS011;6855;48.112;11.298;2023-04-25T11:51:10;1.23;;;1.00;;
13566;SDS011;6855;48.112;11.298;2023-04-25T11:53:38;1.70;;;0.90;;
13566;SDS011;6855;48.112;11.298;2023-04-25T11:56:10;1.47;;;1.37;;
13566;SDS011;6855;48.112;11.298;2023-04-25T12:01:24;0.87;;;0.73;;
13566;SDS011;6855;48.112;11.298;2023-04-25T12:03:51;1.90;;;0.90;;
13566;SDS011;6855;48.112;11.298;2023-04-25T12:06:19;1.20;;;0.80;;
13566;SDS011;6855;48.112;11.298;2023-04-25T12:08:58;0.80;;;0.80;;
13566;SDS011;6855;48.112;11.298;2023-04-25T12:11:27;1.07;;;0.70;;
13566;SDS011;6855;48.112;11.298;2023-04-25T12:13:54;1.10;;;0.80;;
13566;SDS011;6855;48.112;11.298;2023-04-25T12:16:21;1.67;;;1.13;;
13566;SDS011;6855;48.112;11.298;2023-04-25T12:18:51;1.10;;;0.90;;
13566;SDS011;6855;48.112;11.298;2023-04-25T12:21:20;0.70;;;0.70;;
13566;SDS011;6855;48.112;11.298;2023-04-25T12:23:47;4.83;;;0.87;;
13566;SDS011;6855;48.112;11.298;2023-04-25T12:26:14;3.10;;;1.40;;
13566;SDS011;6855;48.112;11.298;2023-04-25T12:28:45;1.10;;;1.00;;
13566;SDS011;6855;48.112;11.298;2023-04-25T12:31:13;1.00;;;0.90;;
13566;SDS011;6855;48.112;11.298;2023-04-25T12:33:41;1.60;;;1.13;;
13566;SDS011;6855;48.112;11.298;2023-04-25T12:36:12;3.90;;;0.70;;
13566;SDS011;6855;48.112;11.298;2023-04-25T12:38:42;1.00;;;0.83;;
13566;SDS011;6855;48.112;11.298;2023-04-25T12:41:09;3.57;;;1.10;;
13566;SDS011;6855;48.112;11.298;2023-04-25T12:43:36;1.00;;;0.70;;
13566;SDS011;6855;48.112;11.298;2023-04-25T12:46:05;1.00;;;0.77;;
13566;SDS011;6855;48.112;11.298;2023-04-25T12:48:32;2.63;;;0.90;;
13566;SDS011;6855;48.112;11.298;2023-04-25T12:50:59;0.90;;;0.70;;
13566;SDS011;6855;48.112;11.298;2023-04-25T12:53:26;0.90;;;0.60;;
13566;SDS011;6855;48.112;11.298;2023-04-25T12:55:53;0.70;;;0.70;;
13566;SDS011;6855;48.112;11.298;2023-04-25T12:58:21;1.47;;;0.77;;
13566;SDS011;6855;48.112;11.298;2023-04-25T13:00:48;0.90;;;0.80;;
13566;SDS011;6855;48.112;11.298;2023-04-25T13:03:17;0.93;;;0.80;;
13566;SDS011;6855;48.112;11.298;2023-04-25T13:05:44;0.70;;;0.70;;
13566;SDS011;6855;48.112;11.298;2023-04-25T13:08:11;0.60;;;0.60;;
13566;SDS011;6855;48.112;11.298;2023-04-25T13:10:38;1.33;;;0.70;;
13566;SDS011;6855;48.112;11.298;2023-04-25T13:13:06;0.97;;;0.87;;
13566;SDS011;6855;48.112;11.298;2023-04-25T13:15:34;0.80;;;0.70;;
13566;SDS011;6855;48.112;11.298;2023-04-25T13:18:01;0.73;;;0.70;;
13566;SDS011;6855;48.112;11.298;2023-04-25T13:20:30;1.00;;;0.80;;
13566;SDS011;6855;48.112;11.298;2023-04-25T13:22:57;0.90;;;0.90;;
13566;SDS011;6855;48.112;11.298;2023-04-25T13:25:24;1.23;;;0.87;;
13566;SDS011;6855;48.112;11.298;2023-04-25T13:27:52;0.80;;;0.80;;
13566;SDS011;6855;48.112;11.298;2023-04-25T13:30:19;1.60;;;0.90;;
13566;SDS011;6855;48.112;11.298;2023-04-25T13:32:46;1.77;;;0.80;;
13566;SDS011;6855;48.112;11.298;2023-04-25T13:35:13;0.80;;;0.70;;
13566;SDS011;6855;48.112;11.298;2023-04-25T13:37:42;0.60;;;0.60;;
13566;SDS011;6855;48.112;11.298;2023-04-25T13:40:10;0.60;;;0.60;;
13566;SDS011;6855;48.112;11.298;2023-04-25T13:42:38;0.60;;;0.50;;
13566;SDS011;6855;48.112;11.298;2023-04-25T13:45:06;0.60;;;0.60;;
13566;SDS011;6855;48.112;11.298;2023-04-25T13:47:33;2.63;;;0.80;;
13566;SDS011;6855;48.112;11.298;2023-04-25T13:50:00;1.13;;;0.60;;
13566;SDS011;6855;48.112;11.298;2023-04-25T13:52:28;1.90;;;1.30;;
13566;SDS011;6855;48.112;11.298;2023-04-25T13:54:57;1.00;;;0.90;;
13566;SDS011;6855;48.112;11.298;2023-04-25T13:57:24;0.60;;;0.60;;
13566;SDS011;6855;48.112;11.298;2023-04-25T13:59:52;1.07;;;0.77;;
13566;SDS011;6855;48.112;11.298;2023-04-25T14:02:19;1.13;;;1.00;;
13566;SDS011;6855;48.112;11.298;2023-04-25T14:04:47;0.97;;;0.80;;
13566;SDS011;6855;48.112;11.298;2023-04-25T14:07:14;1.00;;;0.90;;
13566;SDS011;6855;48.112;11.298;2023-04-25T14:09:42;0.80;;;0.73;;
13566;SDS011;6855;48.112;11.298;2023-04-25T14:12:11;1.00;;;0.90;;
13566;SDS011;6855;48.112;11.298;2023-04-25T14:14:38;0.70;;;0.70;;
13566;SDS011;6855;48.112;11.298;2023-04-25T14:17:05;0.80;;;0.73;;
13566;SDS011;6855;48.112;11.298;2023-04-25T14:19:32;0.70;;;0.70;;
13566;SDS011;6855;48.112;11.298;2023-04-25T14:22:00;1.17;;;0.80;;
13566;SDS011;6855;48.112;11.298;2023-04-25T14:24:27;0.83;;;0.83;;
13566;SDS011;6855;48.112;11.298;2023-04-25T14:26:54;0.70;;;0.70;;
13566;SDS011;6855;48.112;11.298;2023-04-25T14:29:23;1.43;;;1.10;;
13566;SDS011;6855;48.112;11.298;2023-04-25T14:31:51;1.67;;;1.00;;
13566;SDS011;6855;48.112;11.298;2023-04-25T14:34:19;1.03;;;0.90;;
13566;SDS011;6855;48.112;11.298;2023-04-25T14:36:48;3.30;;;1.20;;
13566;SDS011;6855;48.112;11.298;2023-04-25T14:39:16;1.23;;;1.10;;
13566;SDS011;6855;48.112;11.298;2023-04-25T14:41:43;1.10;;;1.00;;
13566;SDS011;6855;48.112;11.298;2023-04-25T14:44:12;0.70;;;0.70;;
13566;SDS011;6855;48.112;11.298;2023-04-25T14:46:41;1.10;;;0.77;;
13566;SDS011;6855;48.112;11.298;2023-04-25T14:49:09;1.37;;;0.70;;
13566;SDS011;6855;48.112;11.298;2023-04-25T14:51:41;2.20;;;1.10;;
13566;SDS011;6855;48.112;11.298;2023-04-25T14:54:08;0.80;;;0.73;;